sensor_id;sensor_type;location;lat;lon;timestamp;pressure;altitude;pressure_sealevel;temperature;humidity
65716;BME280;52442;51.956;8.590;2022-09-09T00:01:03;99913.66;;;16.55;71.99
65716;BME280;52442;51.956;8.590;2022-09-09T00:11:11;99919.06;;;16.36;73.22
65716;BME280;52442;51.956;8.590;2022-09-09T00:16:22;99916.31;;;16.55;72.14
65716;BME280;52442;51.956;8.590;2022-09-09T00:26:49;99915.63;;;16.53;72.70
65716;BME280;52442;51.956;8.590;2022-09-09T00:31:56;99922.25;;;16.67;72.58
65716;BME280;52442;51.956;8.590;2022-09-09T00:37:00;99919.75;;;16.83;73.16
65716;BME280;52442;51.956;8.590;2022-09-09T00:47:35;99915.91;;;16.78;72.48
65716;BME280;52442;51.956;8.590;2022-09-09T00:57:57;99907.53;;;16.55;73.17
65716;BME280;52442;51.956;8.590;2022-09-09T01:13:44;99896.16;;;16.45;74.07
65716;BME280;52442;51.956;8.590;2022-09-09T01:18:50;99893.06;;;16.40;74.47
65716;BME280;52442;51.956;8.590;2022-09-09T01:29:40;99909.06;;;16.30;73.80
65716;BME280;52442;51.956;8.590;2022-09-09T01:34:42;99907.66;;;16.26;74.27
65716;BME280;52442;51.956;8.590;2022-09-09T01:39:44;99912.97;;;16.26;73.87
65716;BME280;52442;51.956;8.590;2022-09-09T01:44:47;99909.00;;;16.40;73.96
65716;BME280;52442;51.956;8.590;2022-09-09T01:49:48;99897.69;;;16.38;73.44
65716;BME280;52442;51.956;8.590;2022-09-09T01:54:55;99905.34;;;16.41;73.55
65716;BME280;52442;51.956;8.590;2022-09-09T02:00:08;99904.53;;;16.40;73.55
65716;BME280;52442;51.956;8.590;2022-09-09T02:05:20;99911.50;;;16.41;73.26
65716;BME280;52442;51.956;8.590;2022-09-09T02:10:53;99905.66;;;16.38;73.30
65716;BME280;52442;51.956;8.590;2022-09-09T02:16:42;99917.41;;;16.35;74.00
65716;BME280;52442;51.956;8.590;2022-09-09T02:21:46;99918.44;;;16.25;74.04
65716;BME280;52442;51.956;8.590;2022-09-09T02:26:49;99917.94;;;16.12;74.55
65716;BME280;52442;51.956;8.590;2022-09-09T02:31:52;99913.22;;;16.06;74.84
65716;BME280;52442;51.956;8.590;2022-09-09T02:37:01;99924.78;;;16.05;74.84
65716;BME280;52442;51.956;8.590;2022-09-09T02:42:04;99922.13;;;16.05;74.95
65716;BME280;52442;51.956;8.590;2022-09-09T02:47:25;99928.69;;;16.10;75.21
65716;BME280;52442;51.956;8.590;2022-09-09T02:57:38;99928.19;;;16.24;76.27
65716;BME280;52442;51.956;8.590;2022-09-09T03:02:39;99935.63;;;16.21;76.93
65716;BME280;52442;51.956;8.590;2022-09-09T03:07:41;99925.44;;;16.16;78.15
65716;BME280;52442;51.956;8.590;2022-09-09T03:12:43;99930.34;;;16.11;79.10
65716;BME280;52442;51.956;8.590;2022-09-09T03:17:44;99929.56;;;16.01;79.62
65716;BME280;52442;51.956;8.590;2022-09-09T03:22:44;99932.38;;;15.90;80.61
65716;BME280;52442;51.956;8.590;2022-09-09T03:27:45;99936.59;;;15.83;80.66
65716;BME280;52442;51.956;8.590;2022-09-09T03:32:46;99935.19;;;15.98;81.32
65716;BME280;52442;51.956;8.590;2022-09-09T03:37:47;99926.44;;;15.79;81.94
65716;BME280;52442;51.956;8.590;2022-09-09T03:42:49;99927.84;;;15.73;82.17
65716;BME280;52442;51.956;8.590;2022-09-09T03:47:50;99928.97;;;15.71;82.59
65716;BME280;52442;51.956;8.590;2022-09-09T03:52:51;99925.09;;;15.65;82.47
65716;BME280;52442;51.956;8.590;2022-09-09T03:57:55;99929.63;;;15.82;82.14
65716;BME280;52442;51.956;8.590;2022-09-09T04:02:56;99926.75;;;15.66;83.10
65716;BME280;52442;51.956;8.590;2022-09-09T04:07:56;99922.72;;;15.62;82.66
65716;BME280;52442;51.956;8.590;2022-09-09T04:12:58;99927.72;;;15.65;82.74
65716;BME280;52442;51.956;8.590;2022-09-09T04:17:59;99935.50;;;15.76;83.06
65716;BME280;52442;51.956;8.590;2022-09-09T04:23:01;99937.97;;;15.87;81.94
65716;BME280;52442;51.956;8.590;2022-09-09T04:28:02;99940.91;;;15.84;81.83
65716;BME280;52442;51.956;8.590;2022-09-09T04:33:03;99933.88;;;16.02;80.12
65716;BME280;52442;51.956;8.590;2022-09-09T04:38:04;99932.38;;;16.00;80.42
65716;BME280;52442;51.956;8.590;2022-09-09T04:43:06;99926.91;;;16.01;81.11
65716;BME280;52442;51.956;8.590;2022-09-09T04:48:08;99929.88;;;15.98;81.06
65716;BME280;52442;51.956;8.590;2022-09-09T04:53:10;99933.63;;;15.96;82.02
65716;BME280;52442;51.956;8.590;2022-09-09T04:58:11;99939.09;;;15.94;81.40
65716;BME280;52442;51.956;8.590;2022-09-09T05:03:12;99943.00;;;15.90;81.69
65716;BME280;52442;51.956;8.590;2022-09-09T05:08:13;99946.34;;;15.92;82.24
65716;BME280;52442;51.956;8.590;2022-09-09T05:13:14;99957.19;;;15.99;81.63
65716;BME280;52442;51.956;8.590;2022-09-09T05:18:14;99952.44;;;16.02;81.65
65716;BME280;52442;51.956;8.590;2022-09-09T05:23:14;99952.69;;;16.09;81.75
65716;BME280;52442;51.956;8.590;2022-09-09T05:28:15;99954.63;;;16.16;81.59
65716;BME280;52442;51.956;8.590;2022-09-09T05:33:15;99945.94;;;16.24;81.68
65716;BME280;52442;51.956;8.590;2022-09-09T05:38:16;99946.28;;;16.38;82.09
65716;BME280;52442;51.956;8.590;2022-09-09T05:43:22;99956.75;;;16.40;81.41
65716;BME280;52442;51.956;8.590;2022-09-09T05:48:23;99961.06;;;16.50;80.41
65716;BME280;52442;51.956;8.590;2022-09-09T05:53:23;99962.94;;;16.68;79.44
65716;BME280;52442;51.956;8.590;2022-09-09T05:58:24;99961.91;;;17.13;77.05
65716;BME280;52442;51.956;8.590;2022-09-09T06:03:24;99963.13;;;17.54;75.96
65716;BME280;52442;51.956;8.590;2022-09-09T06:08:26;99960.53;;;17.62;75.50
65716;BME280;52442;51.956;8.590;2022-09-09T06:13:26;99962.34;;;17.61;75.78
65716;BME280;52442;51.956;8.590;2022-09-09T06:18:27;99957.69;;;17.89;74.77
65716;BME280;52442;51.956;8.590;2022-09-09T06:23:28;99953.28;;;17.98;74.34
65716;BME280;52442;51.956;8.590;2022-09-09T06:28:28;99952.44;;;17.97;73.98
65716;BME280;52442;51.956;8.590;2022-09-09T06:33:37;99947.09;;;17.97;73.99
65716;BME280;52442;51.956;8.590;2022-09-09T06:38:41;99946.84;;;18.42;73.33
65716;BME280;52442;51.956;8.590;2022-09-09T06:43:42;99944.00;;;18.85;71.65
65716;BME280;52442;51.956;8.590;2022-09-09T06:48:45;99938.66;;;18.85;71.15
65716;BME280;52442;51.956;8.590;2022-09-09T06:53:52;99948.81;;;18.89;70.37
65716;BME280;52442;51.956;8.590;2022-09-09T06:58:55;99953.47;;;18.79;71.00
65716;BME280;52442;51.956;8.590;2022-09-09T07:04:00;99957.88;;;18.55;71.24
65716;BME280;52442;51.956;8.590;2022-09-09T07:09:04;99962.28;;;18.38;72.31
65716;BME280;52442;51.956;8.590;2022-09-09T07:14:05;99965.53;;;18.24;73.02
65716;BME280;52442;51.956;8.590;2022-09-09T07:19:06;99976.53;;;18.29;73.16
65716;BME280;52442;51.956;8.590;2022-09-09T07:24:06;99970.84;;;18.50;72.93
65716;BME280;52442;51.956;8.590;2022-09-09T07:29:11;99978.78;;;18.83;71.41
65716;BME280;52442;51.956;8.590;2022-09-09T07:34:14;99982.19;;;19.09;70.00
65716;BME280;52442;51.956;8.590;2022-09-09T07:39:15;99986.84;;;19.15;69.93
65716;BME280;52442;51.956;8.590;2022-09-09T07:44:23;99979.69;;;19.08;69.52
65716;BME280;52442;51.956;8.590;2022-09-09T07:49:37;99985.16;;;19.06;68.50
65716;BME280;52442;51.956;8.590;2022-09-09T07:54:40;99978.81;;;18.99;69.25
65716;BME280;52442;51.956;8.590;2022-09-09T07:59:41;99983.16;;;19.08;68.62
65716;BME280;52442;51.956;8.590;2022-09-09T08:04:42;99978.22;;;19.29;68.65
65716;BME280;52442;51.956;8.590;2022-09-09T08:09:43;99970.22;;;19.54;68.40
65716;BME280;52442;51.956;8.590;2022-09-09T08:14:50;99976.00;;;20.13;66.07
65716;BME280;52442;51.956;8.590;2022-09-09T08:19:51;99974.81;;;21.46;61.75
65716;BME280;52442;51.956;8.590;2022-09-09T08:24:56;99974.53;;;22.74;58.42
65716;BME280;52442;51.956;8.590;2022-09-09T08:29:57;99973.63;;;24.55;53.36
65716;BME280;52442;51.956;8.590;2022-09-09T08:34:58;99979.53;;;24.03;54.43
65716;BME280;52442;51.956;8.590;2022-09-09T08:39:58;99979.22;;;23.07;56.59
65716;BME280;52442;51.956;8.590;2022-09-09T08:45:10;99980.59;;;23.18;54.99
65716;BME280;52442;51.956;8.590;2022-09-09T08:50:27;99990.16;;;22.70;57.42
65716;BME280;52442;51.956;8.590;2022-09-09T08:55:56;99984.50;;;22.65;57.18
65716;BME280;52442;51.956;8.590;2022-09-09T09:11:37;99987.09;;;22.44;57.44
65716;BME280;52442;51.956;8.590;2022-09-09T09:16:48;99993.75;;;22.34;58.12
65716;BME280;52442;51.956;8.590;2022-09-09T09:22:43;100003.72;;;21.73;58.93
65716;BME280;52442;51.956;8.590;2022-09-09T09:27:35;99993.09;;;21.20;59.95
65716;BME280;52442;51.956;8.590;2022-09-09T09:32:40;99988.63;;;21.72;57.97
65716;BME280;52442;51.956;8.590;2022-09-09T09:37:43;99991.53;;;21.48;56.07
65716;BME280;52442;51.956;8.590;2022-09-09T09:42:54;99986.84;;;21.50;57.49
65716;BME280;52442;51.956;8.590;2022-09-09T09:47:59;99984.28;;;21.94;56.15
65716;BME280;52442;51.956;8.590;2022-09-09T09:53:03;99980.38;;;21.82;55.60
65716;BME280;52442;51.956;8.590;2022-09-09T09:58:15;99986.31;;;21.32;57.29
65716;BME280;52442;51.956;8.590;2022-09-09T10:03:32;99993.53;;;20.93;58.09
65716;BME280;52442;51.956;8.590;2022-09-09T10:08:45;100000.56;;;20.63;59.53
65716;BME280;52442;51.956;8.590;2022-09-09T10:13:52;99992.69;;;20.70;58.84
65716;BME280;52442;51.956;8.590;2022-09-09T10:18:59;99987.66;;;21.51;55.89
65716;BME280;52442;51.956;8.590;2022-09-09T10:24:20;99984.03;;;22.04;53.11
65716;BME280;52442;51.956;8.590;2022-09-09T10:29:35;99982.78;;;22.58;52.50
65716;BME280;52442;51.956;8.590;2022-09-09T10:34:55;99979.25;;;22.57;52.64
65716;BME280;52442;51.956;8.590;2022-09-09T10:40:35;99971.03;;;22.59;53.54
65716;BME280;52442;51.956;8.590;2022-09-09T10:51:15;99964.81;;;22.29;53.24
65716;BME280;52442;51.956;8.590;2022-09-09T10:56:21;99979.06;;;22.30;53.59
65716;BME280;52442;51.956;8.590;2022-09-09T11:01:37;99967.59;;;22.65;52.29
65716;BME280;52442;51.956;8.590;2022-09-09T11:06:45;99966.47;;;22.74;50.33
65716;BME280;52442;51.956;8.590;2022-09-09T11:11:54;99965.56;;;22.67;50.70
65716;BME280;52442;51.956;8.590;2022-09-09T11:17:01;99963.91;;;22.37;52.20
65716;BME280;52442;51.956;8.590;2022-09-09T11:22:36;99967.41;;;22.66;51.63
65716;BME280;52442;51.956;8.590;2022-09-09T11:27:48;99969.25;;;22.80;50.54
65716;BME280;52442;51.956;8.590;2022-09-09T11:43:23;99960.03;;;23.46;48.63
65716;BME280;52442;51.956;8.590;2022-09-09T11:48:57;99962.47;;;23.41;48.49
65716;BME280;52442;51.956;8.590;2022-09-09T11:54:00;99967.59;;;23.00;49.90
65716;BME280;52442;51.956;8.590;2022-09-09T11:59:17;99966.66;;;23.08;50.02
65716;BME280;52442;51.956;8.590;2022-09-09T12:19:41;99953.72;;;23.54;45.09
65716;BME280;52442;51.956;8.590;2022-09-09T12:24:56;99933.56;;;23.01;44.52
65716;BME280;52442;51.956;8.590;2022-09-09T12:30:07;99934.66;;;23.06;45.03
65716;BME280;52442;51.956;8.590;2022-09-09T12:35:20;99927.53;;;22.99;47.10
65716;BME280;52442;51.956;8.590;2022-09-09T12:40:24;99934.78;;;23.19;45.91
65716;BME280;52442;51.956;8.590;2022-09-09T12:45:27;99937.75;;;23.46;44.80
65716;BME280;52442;51.956;8.590;2022-09-09T12:50:37;99931.28;;;23.19;46.93
65716;BME280;52442;51.956;8.590;2022-09-09T12:55:39;99927.56;;;23.20;47.80
65716;BME280;52442;51.956;8.590;2022-09-09T13:00:49;99922.56;;;23.17;48.86
65716;BME280;52442;51.956;8.590;2022-09-09T13:05:56;99922.88;;;22.86;48.71
65716;BME280;52442;51.956;8.590;2022-09-09T13:11:02;99929.22;;;22.79;49.89
65716;BME280;52442;51.956;8.590;2022-09-09T13:16:19;99920.66;;;22.90;48.76
65716;BME280;52442;51.956;8.590;2022-09-09T13:21:31;99911.09;;;22.81;48.99
65716;BME280;52442;51.956;8.590;2022-09-09T13:26:32;99908.97;;;22.97;48.17
65716;BME280;52442;51.956;8.590;2022-09-09T13:31:36;99897.63;;;23.38;46.82
65716;BME280;52442;51.956;8.590;2022-09-09T13:36:36;99910.03;;;23.66;45.75
65716;BME280;52442;51.956;8.590;2022-09-09T13:41:42;99914.25;;;23.54;45.14
65716;BME280;52442;51.956;8.590;2022-09-09T13:46:44;99907.13;;;23.40;46.46
65716;BME280;52442;51.956;8.590;2022-09-09T13:51:47;99904.72;;;23.73;44.50
65716;BME280;52442;51.956;8.590;2022-09-09T13:56:49;99905.97;;;23.49;44.91
65716;BME280;52442;51.956;8.590;2022-09-09T14:01:49;99907.63;;;23.08;45.17
65716;BME280;52442;51.956;8.590;2022-09-09T14:06:52;99897.63;;;22.95;45.76
65716;BME280;52442;51.956;8.590;2022-09-09T14:11:53;99906.16;;;23.05;45.84
65716;BME280;52442;51.956;8.590;2022-09-09T14:16:55;99905.66;;;23.16;46.04
65716;BME280;52442;51.956;8.590;2022-09-09T14:21:55;99895.75;;;23.17;45.47
65716;BME280;52442;51.956;8.590;2022-09-09T14:26:56;99894.94;;;23.38;45.88
65716;BME280;52442;51.956;8.590;2022-09-09T14:31:57;99893.53;;;22.99;46.40
65716;BME280;52442;51.956;8.590;2022-09-09T14:36:59;99885.13;;;22.67;46.96
65716;BME280;52442;51.956;8.590;2022-09-09T14:41:59;99895.31;;;22.57;47.03
65716;BME280;52442;51.956;8.590;2022-09-09T14:47:00;99893.75;;;22.62;47.40
65716;BME280;52442;51.956;8.590;2022-09-09T14:52:00;99887.56;;;22.83;45.13
65716;BME280;52442;51.956;8.590;2022-09-09T14:57:01;99889.75;;;22.94;45.11
65716;BME280;52442;51.956;8.590;2022-09-09T15:02:02;99899.00;;;22.91;46.23
65716;BME280;52442;51.956;8.590;2022-09-09T15:07:04;99900.41;;;22.87;45.36
65716;BME280;52442;51.956;8.590;2022-09-09T15:12:04;99898.94;;;22.85;45.26
65716;BME280;52442;51.956;8.590;2022-09-09T15:17:04;99906.88;;;22.93;45.17
65716;BME280;52442;51.956;8.590;2022-09-09T15:22:05;99914.91;;;22.93;46.36
65716;BME280;52442;51.956;8.590;2022-09-09T15:27:05;99911.50;;;22.84;46.65
65716;BME280;52442;51.956;8.590;2022-09-09T15:32:06;99907.81;;;22.50;48.71
65716;BME280;52442;51.956;8.590;2022-09-09T15:37:06;99907.56;;;22.30;49.01
65716;BME280;52442;51.956;8.590;2022-09-09T15:42:07;99909.13;;;22.10;49.25
65716;BME280;52442;51.956;8.590;2022-09-09T15:47:11;99925.56;;;21.92;50.78
65716;BME280;52442;51.956;8.590;2022-09-09T15:52:12;99913.66;;;21.95;52.85
65716;BME280;52442;51.956;8.590;2022-09-09T15:57:13;99900.50;;;21.71;52.01
65716;BME280;52442;51.956;8.590;2022-09-09T16:02:13;99909.44;;;21.63;52.62
65716;BME280;52442;51.956;8.590;2022-09-09T16:07:14;99900.72;;;21.47;53.22
65716;BME280;52442;51.956;8.590;2022-09-09T16:12:14;99902.16;;;21.20;54.13
65716;BME280;52442;51.956;8.590;2022-09-09T16:17:15;99899.97;;;20.93;54.29
65716;BME280;52442;51.956;8.590;2022-09-09T16:22:17;99905.47;;;20.69;55.70
65716;BME280;52442;51.956;8.590;2022-09-09T16:27:18;99906.06;;;20.56;55.39
65716;BME280;52442;51.956;8.590;2022-09-09T16:32:18;99913.25;;;20.56;55.04
65716;BME280;52442;51.956;8.590;2022-09-09T16:37:18;99909.22;;;20.60;54.93
65716;BME280;52442;51.956;8.590;2022-09-09T16:42:19;99917.41;;;20.58;55.05
65716;BME280;52442;51.956;8.590;2022-09-09T16:47:19;99924.41;;;20.59;54.63
65716;BME280;52442;51.956;8.590;2022-09-09T16:52:19;99934.84;;;20.46;54.47
65716;BME280;52442;51.956;8.590;2022-09-09T16:57:20;99940.69;;;20.42;55.11
65716;BME280;52442;51.956;8.590;2022-09-09T17:02:20;99947.25;;;20.31;55.85
65716;BME280;52442;51.956;8.590;2022-09-09T17:07:20;99943.63;;;20.24;55.88
65716;BME280;52442;51.956;8.590;2022-09-09T17:12:22;99962.16;;;20.18;56.40
65716;BME280;52442;51.956;8.590;2022-09-09T17:17:23;99979.97;;;20.25;57.27
65716;BME280;52442;51.956;8.590;2022-09-09T17:22:23;99985.69;;;19.98;56.99
65716;BME280;52442;51.956;8.590;2022-09-09T17:27:23;99984.75;;;19.59;59.49
65716;BME280;52442;51.956;8.590;2022-09-09T17:32:24;99980.53;;;19.24;61.73
65716;BME280;52442;51.956;8.590;2022-09-09T17:37:24;99976.47;;;18.88;64.78
65716;BME280;52442;51.956;8.590;2022-09-09T17:42:24;99980.72;;;18.65;67.46
65716;BME280;52442;51.956;8.590;2022-09-09T17:47:25;100006.63;;;18.47;68.23
65716;BME280;52442;51.956;8.590;2022-09-09T17:52:26;100002.16;;;18.30;67.91
65716;BME280;52442;51.956;8.590;2022-09-09T17:57:26;100006.31;;;18.25;67.65
65716;BME280;52442;51.956;8.590;2022-09-09T18:02:27;100005.63;;;18.23;66.99
65716;BME280;52442;51.956;8.590;2022-09-09T18:07:29;100016.22;;;18.15;66.21
65716;BME280;52442;51.956;8.590;2022-09-09T18:12:30;100014.56;;;18.14;67.84
65716;BME280;52442;51.956;8.590;2022-09-09T18:17:30;100018.16;;;18.05;67.74
65716;BME280;52442;51.956;8.590;2022-09-09T18:22:32;100021.19;;;18.10;68.84
65716;BME280;52442;51.956;8.590;2022-09-09T18:27:32;100027.09;;;17.95;69.17
65716;BME280;52442;51.956;8.590;2022-09-09T18:32:33;100024.72;;;17.92;68.15
65716;BME280;52442;51.956;8.590;2022-09-09T18:37:33;100040.38;;;17.95;69.12
65716;BME280;52442;51.956;8.590;2022-09-09T18:42:35;100047.47;;;17.87;69.63
65716;BME280;52442;51.956;8.590;2022-09-09T18:47:35;100045.81;;;17.86;70.83
65716;BME280;52442;51.956;8.590;2022-09-09T18:52:36;100042.53;;;17.74;71.67
65716;BME280;52442;51.956;8.590;2022-09-09T18:57:37;100033.41;;;17.77;70.72
65716;BME280;52442;51.956;8.590;2022-09-09T19:02:37;100034.19;;;17.69;72.21
65716;BME280;52442;51.956;8.590;2022-09-09T19:07:38;100035.78;;;17.62;72.79
65716;BME280;52442;51.956;8.590;2022-09-09T19:12:40;100042.88;;;17.54;73.66
65716;BME280;52442;51.956;8.590;2022-09-09T19:17:41;100046.97;;;17.48;72.36
65716;BME280;52442;51.956;8.590;2022-09-09T19:22:41;100044.75;;;17.44;72.23
65716;BME280;52442;51.956;8.590;2022-09-09T19:27:41;100039.56;;;17.42;71.55
65716;BME280;52442;51.956;8.590;2022-09-09T19:32:42;100028.88;;;17.34;71.83
65716;BME280;52442;51.956;8.590;2022-09-09T19:37:42;100040.53;;;17.41;73.73
65716;BME280;52442;51.956;8.590;2022-09-09T19:42:42;100050.28;;;17.33;72.67
65716;BME280;52442;51.956;8.590;2022-09-09T19:47:43;100046.09;;;17.30;72.90
65716;BME280;52442;51.956;8.590;2022-09-09T19:52:43;100056.78;;;17.21;73.60
65716;BME280;52442;51.956;8.590;2022-09-09T19:57:43;100047.09;;;17.29;73.40
65716;BME280;52442;51.956;8.590;2022-09-09T20:02:44;100044.19;;;17.23;73.73
65716;BME280;52442;51.956;8.590;2022-09-09T20:07:44;100050.84;;;17.09;74.76
65716;BME280;52442;51.956;8.590;2022-09-09T20:12:45;100054.03;;;16.95;75.16
65716;BME280;52442;51.956;8.590;2022-09-09T20:17:45;100057.03;;;16.83;75.40
65716;BME280;52442;51.956;8.590;2022-09-09T20:22:45;100057.06;;;16.73;75.70
65716;BME280;52442;51.956;8.590;2022-09-09T20:27:46;100053.28;;;16.76;76.05
65716;BME280;52442;51.956;8.590;2022-09-09T20:32:46;100049.34;;;16.80;76.30
65716;BME280;52442;51.956;8.590;2022-09-09T20:37:47;100049.88;;;16.83;76.17
65716;BME280;52442;51.956;8.590;2022-09-09T20:42:47;100059.16;;;16.79;75.94
65716;BME280;52442;51.956;8.590;2022-09-09T20:47:48;100055.03;;;16.85;75.84
65716;BME280;52442;51.956;8.590;2022-09-09T20:52:49;100063.31;;;16.82;75.70
65716;BME280;52442;51.956;8.590;2022-09-09T20:57:51;100061.25;;;16.76;75.13
65716;BME280;52442;51.956;8.590;2022-09-09T21:02:51;100059.03;;;16.71;75.76
65716;BME280;52442;51.956;8.590;2022-09-09T21:07:52;100061.59;;;16.63;76.25
65716;BME280;52442;51.956;8.590;2022-09-09T21:12:52;100052.75;;;16.72;75.80
65716;BME280;52442;51.956;8.590;2022-09-09T21:17:53;100065.66;;;16.57;76.86
65716;BME280;52442;51.956;8.590;2022-09-09T21:22:53;100075.88;;;16.52;76.54
65716;BME280;52442;51.956;8.590;2022-09-09T21:27:54;100075.72;;;16.54;76.54
65716;BME280;52442;51.956;8.590;2022-09-09T21:32:54;100073.50;;;16.49;77.06
65716;BME280;52442;51.956;8.590;2022-09-09T21:37:55;100071.56;;;16.51;76.40
65716;BME280;52442;51.956;8.590;2022-09-09T21:42:55;100072.97;;;16.46;76.64
65716;BME280;52442;51.956;8.590;2022-09-09T21:47:55;100067.94;;;16.33;77.55
65716;BME280;52442;51.956;8.590;2022-09-09T21:52:56;100071.19;;;16.27;77.52
65716;BME280;52442;51.956;8.590;2022-09-09T21:57:56;100066.03;;;16.16;77.63
65716;BME280;52442;51.956;8.590;2022-09-09T22:02:58;100076.94;;;16.13;78.10
65716;BME280;52442;51.956;8.590;2022-09-09T22:07:59;100063.00;;;16.02;78.12
65716;BME280;52442;51.956;8.590;2022-09-09T22:12:59;100062.97;;;16.11;77.70
65716;BME280;52442;51.956;8.590;2022-09-09T22:18:01;100066.63;;;16.01;78.11
65716;BME280;52442;51.956;8.590;2022-09-09T22:23:04;100066.78;;;15.99;78.24
65716;BME280;52442;51.956;8.590;2022-09-09T22:28:06;100075.16;;;16.04;78.12
65716;BME280;52442;51.956;8.590;2022-09-09T22:33:07;100088.25;;;16.06;77.87
65716;BME280;52442;51.956;8.590;2022-09-09T22:38:11;100090.34;;;16.12;77.38
65716;BME280;52442;51.956;8.590;2022-09-09T22:43:15;100100.09;;;16.11;77.79
65716;BME280;52442;51.956;8.590;2022-09-09T22:48:16;100112.06;;;16.34;76.95
65716;BME280;52442;51.956;8.590;2022-09-09T22:53:17;100117.94;;;16.38;76.73
65716;BME280;52442;51.956;8.590;2022-09-09T22:58:18;100116.13;;;16.38;76.87
65716;BME280;52442;51.956;8.590;2022-09-09T23:03:21;100113.63;;;16.46;76.82
65716;BME280;52442;51.956;8.590;2022-09-09T23:08:30;100108.16;;;16.48;76.83
65716;BME280;52442;51.956;8.590;2022-09-09T23:13:38;100113.06;;;16.33;77.03
65716;BME280;52442;51.956;8.590;2022-09-09T23:18:41;100102.03;;;16.28;77.45
65716;BME280;52442;51.956;8.590;2022-09-09T23:23:43;100102.03;;;16.28;77.56
65716;BME280;52442;51.956;8.590;2022-09-09T23:28:45;100103.84;;;16.28;77.37
65716;BME280;52442;51.956;8.590;2022-09-09T23:33:46;100104.66;;;16.38;77.59
65716;BME280;52442;51.956;8.590;2022-09-09T23:38:47;100100.38;;;16.27;77.20
65716;BME280;52442;51.956;8.590;2022-09-09T23:43:49;100107.38;;;16.19;77.34
65716;BME280;52442;51.956;8.590;2022-09-09T23:48:49;100095.91;;;16.18;78.16
65716;BME280;52442;51.956;8.590;2022-09-09T23:53:52;100097.59;;;16.19;77.76
65716;BME280;52442;51.956;8.590;2022-09-09T23:58:53;100087.66;;;16.21;77.96
